createdAt,value
2018-08-30T00:00:33.269Z,97895.03
2018-08-30T00:02:09.501Z,97916.88
2018-08-30T00:03:46.830Z,97909.91
2018-08-30T00:05:22.441Z,97929.19
2018-08-30T00:06:57.818Z,97926.66
2018-08-30T00:08:33.246Z,97924.09
2018-08-30T00:10:09.395Z,97806.92
2018-08-30T00:11:44.914Z,97715.34
2018-08-30T00:13:20.232Z,97718.15
2018-08-30T00:14:57.468Z,97658.77
2018-08-30T00:16:33.429Z,97618.08
2018-08-30T00:18:08.649Z,97640.98
2018-08-30T00:19:43.905Z,97680.83
2018-08-30T00:21:19.225Z,97673.75
2018-08-30T00:22:54.882Z,97633.91
2018-08-30T00:24:30.154Z,97643.67
2018-08-30T00:26:06.479Z,97635.25
2018-08-30T00:27:43.025Z,97600.67
2018-08-30T00:29:19.541Z,97601.48
2018-08-30T00:30:56.226Z,97624.06
2018-08-30T00:32:32.509Z,97608.08
2018-08-30T00:34:08.518Z,97589.32
2018-08-30T00:35:45.521Z,97592.01
2018-08-30T00:37:20.826Z,97560.45
2018-08-30T00:38:57.628Z,97546.94
2018-08-30T00:40:34.858Z,97552.31
2018-08-30T00:42:10.907Z,97557.55
2018-08-30T00:43:47.495Z,97543.89
2018-08-30T00:45:24.053Z,97560.94
2018-08-30T00:46:59.335Z,97602.38
2018-08-30T00:48:37.786Z,97642.57
2018-08-30T00:50:14.446Z,97662.67
2018-08-30T00:51:50.742Z,97704.38
2018-08-30T00:53:26.048Z,97756.20
2018-08-30T00:55:05.791Z,97802.18
2018-08-30T00:56:41.316Z,97808.41
2018-08-30T00:58:16.603Z,97823.64
2018-08-30T00:59:52.729Z,97845.59
2018-08-30T01:01:31.084Z,97874.28
2018-08-30T01:03:07.803Z,97919.34
2018-08-30T01:04:43.483Z,97967.68
2018-08-30T01:06:18.669Z,98019.95
2018-08-30T01:07:54.783Z,98075.41
2018-08-30T01:09:30.514Z,98068.68
2018-08-30T01:11:07.552Z,98065.14
2018-08-30T01:12:48.083Z,98058.69
2018-08-30T01:14:24.523Z,98055.63
2018-08-30T01:16:00.143Z,98075.89
2018-08-30T01:17:36.832Z,98081.64
2018-08-30T01:19:12.122Z,98065.41
2018-08-30T01:20:47.671Z,97992.98
2018-08-30T01:22:23.037Z,98009.70
2018-08-30T01:23:58.805Z,98008.35
2018-08-30T01:25:35.545Z,97996.16
2018-08-30T01:27:18.646Z,98045.25
2018-08-30T01:28:56.443Z,98057.94
2018-08-30T01:30:32.526Z,98088.25
2018-08-30T01:32:09.645Z,98113.78
2018-08-30T01:33:45.013Z,98127.94
2018-08-30T01:35:20.317Z,98144.22
2018-08-30T01:36:56.515Z,98164.49
2018-08-30T01:38:39.930Z,98164.13
2018-08-30T01:40:15.584Z,98184.77
2018-08-30T01:41:53.215Z,98171.10
2018-08-30T01:43:29.684Z,98178.69
2018-08-30T01:45:07.313Z,98179.87
2018-08-30T01:46:43.130Z,98201.39
2018-08-30T01:48:18.748Z,98223.91
2018-08-30T01:49:54.565Z,98240.65
2018-08-30T01:51:29.905Z,98249.47
2018-08-30T01:53:05.347Z,98301.44
2018-08-30T01:54:43.212Z,98309.41
2018-08-30T01:56:19.058Z,98301.07
2018-08-30T01:57:54.413Z,98247.75
2018-08-30T01:59:29.729Z,98246.89
2018-08-30T02:01:05.242Z,98272.45
2018-08-30T02:02:40.908Z,98279.92
2018-08-30T02:04:16.348Z,98232.09
2018-08-30T02:05:51.850Z,98231.50
2018-08-30T02:07:27.233Z,98238.22
2018-08-30T02:09:03.323Z,98222.31
2018-08-30T02:10:38.696Z,98213.64
2018-08-30T02:12:13.984Z,98217.20
2018-08-30T02:13:49.467Z,98220.59
2018-08-30T02:15:25.434Z,98243.94
2018-08-30T02:17:00.717Z,98250.19
2018-08-30T02:18:36.987Z,98264.27
2018-08-30T02:20:12.287Z,98277.09
2018-08-30T02:21:47.896Z,98279.66
2018-08-30T02:23:23.183Z,98245.29
2018-08-30T02:24:58.512Z,98229.90
2018-08-30T02:26:33.846Z,98221.23
2018-08-30T02:28:09.805Z,98236.13
2018-08-30T02:29:45.167Z,98256.42
2018-08-30T02:31:20.629Z,98281.98
2018-08-30T02:32:55.931Z,98286.02
2018-08-30T02:34:32.095Z,98269.77
2018-08-30T02:36:07.719Z,98217.31
2018-08-30T02:37:43.205Z,98186.98
2018-08-30T02:39:18.721Z,98164.13
2018-08-30T02:40:54.417Z,98191.02
2018-08-30T02:42:29.680Z,98210.70
2018-08-30T02:44:05.343Z,98260.09
2018-08-30T02:45:44.728Z,98275.03
2018-08-30T02:47:20.658Z,98314.16
2018-08-30T02:48:56.225Z,98366.67
2018-08-30T02:50:31.622Z,98366.55
2018-08-30T02:52:07.028Z,98382.82
2018-08-30T02:53:43.412Z,98390.30
2018-08-30T02:55:18.765Z,98363.98
2018-08-30T02:56:54.438Z,98363.12
2018-08-30T02:58:31.518Z,98391.27
2018-08-30T03:00:08.957Z,98424.81
2018-08-30T03:01:44.564Z,98479.41
2018-08-30T03:03:20.440Z,98483.83
2018-08-30T03:04:56.192Z,98482.82
2018-08-30T03:06:31.810Z,98485.17
2018-08-30T03:08:07.831Z,98471.07
2018-08-30T03:09:48.832Z,98443.77
2018-08-30T03:11:24.854Z,98406.33
2018-08-30T03:13:01.455Z,98396.66
2018-08-30T03:14:38.761Z,98418.34
2018-08-30T03:16:14.876Z,98374.75
2018-08-30T03:17:50.148Z,98331.53
2018-08-30T03:19:25.749Z,98302.53
2018-08-30T03:21:01.217Z,98297.27
2018-08-30T03:22:37.225Z,98314.05
2018-08-30T03:24:12.485Z,98292.89
2018-08-30T03:25:48.054Z,98300.33
2018-08-30T03:27:23.319Z,98303.02
2018-08-30T03:28:58.574Z,98334.72
2018-08-30T03:30:35.704Z,98327.73
2018-08-30T03:32:11.252Z,98292.41
2018-08-30T03:33:46.504Z,98276.23
2018-08-30T03:35:27.079Z,98249.81
2018-08-30T03:37:02.433Z,98218.66
2018-08-30T03:38:38.217Z,98174.67
2018-08-30T03:40:13.352Z,98135.55
2018-08-30T03:41:48.559Z,98114.03
2018-08-30T03:43:23.715Z,98099.52
2018-08-30T03:44:59.239Z,98052.98
2018-08-30T03:46:34.762Z,98106.09
2018-08-30T03:48:09.906Z,98197.64
2018-08-30T03:49:45.085Z,98211.69
2018-08-30T03:51:21.432Z,98206.79
2018-08-30T03:52:56.758Z,98149.61
2018-08-30T03:54:32.515Z,98092.54
2018-08-30T03:56:07.829Z,98073.13
2018-08-30T03:57:43.624Z,98100.48
2018-08-30T03:59:19.176Z,98113.30
2018-08-30T04:00:54.494Z,98158.02
2018-08-30T04:02:29.732Z,98168.17
2018-08-30T04:04:06.087Z,98176.50
2018-08-30T04:05:41.350Z,98179.19
2018-08-30T04:07:16.504Z,98133.48
2018-08-30T04:08:51.662Z,98132.63
2018-08-30T04:10:28.570Z,98174.41
2018-08-30T04:12:04.877Z,98198.61
2018-08-30T04:13:40.196Z,98218.29
2018-08-30T04:15:17.791Z,98231.14
2018-08-30T04:16:53.419Z,98196.41
2018-08-30T04:18:28.660Z,98178.33
2018-08-30T04:20:07.000Z,98138.01
2018-08-30T04:21:42.612Z,98096.69
2018-08-30T04:23:18.327Z,98073.36
2018-08-30T04:24:57.762Z,98049.66
2018-08-30T04:26:34.546Z,98129.20
2018-08-30T04:28:10.161Z,98188.60
2018-08-30T04:29:45.814Z,98224.16
2018-08-30T04:31:21.972Z,98286.66
2018-08-30T04:32:58.511Z,98304.62
2018-08-30T04:34:37.178Z,98321.86
2018-08-30T04:36:14.157Z,98336.81
2018-08-30T04:37:49.793Z,98377.41
2018-08-30T04:39:25.051Z,98292.27
2018-08-30T04:41:00.979Z,98321.86
2018-08-30T04:42:36.620Z,98359.80
2018-08-30T04:44:12.362Z,98340.84
2018-08-30T04:45:49.338Z,98285.91
2018-08-30T04:47:24.633Z,98180.77
2018-08-30T04:48:59.894Z,98232.72
2018-08-30T04:50:35.187Z,98299.47
2018-08-30T04:52:14.804Z,98308.78
2018-08-30T04:53:50.432Z,98239.58
2018-08-30T04:55:25.804Z,98192.15
2018-08-30T04:57:01.972Z,98122.22
2018-08-30T04:58:41.050Z,98077.02
2018-08-30T05:00:21.247Z,98125.39
2018-08-30T05:01:57.048Z,98132.86
2018-08-30T05:03:33.235Z,98131.14
2018-08-30T05:05:09.211Z,98148.77
2018-08-30T05:06:46.059Z,98128.94
2018-08-30T05:08:21.382Z,98136.03
2018-08-30T05:09:57.548Z,98165.86
2018-08-30T05:11:32.763Z,98188.83
2018-08-30T05:13:09.533Z,98273.32
2018-08-30T05:14:44.880Z,98327.39
2018-08-30T05:16:20.898Z,98277.95
2018-08-30T05:17:56.530Z,98261.33
2018-08-30T05:19:35.807Z,98227.59
2018-08-30T05:21:11.018Z,98215.23
2018-08-30T05:22:46.339Z,98231.14
2018-08-30T05:24:22.376Z,98215.72
2018-08-30T05:25:57.976Z,98279.56
2018-08-30T05:27:38.101Z,98320.77
2018-08-30T05:29:13.484Z,98333.59
2018-08-30T05:30:50.671Z,98305.48
2018-08-30T05:32:26.422Z,98302.42
2018-08-30T05:34:01.804Z,98308.18
2018-08-30T05:35:37.051Z,98315.51
2018-08-30T05:37:13.474Z,98349.89
2018-08-30T05:38:49.132Z,98306.34
2018-08-30T05:40:24.353Z,98294.09
2018-08-30T05:41:59.542Z,98300.70
2018-08-30T05:43:35.509Z,98345.85
2018-08-30T05:45:11.407Z,98397.11
2018-08-30T05:46:47.249Z,98396.05
2018-08-30T05:48:22.457Z,98426.16
2018-08-30T05:49:57.623Z,98413.29
2018-08-30T05:51:35.596Z,98374.97
2018-08-30T05:53:10.847Z,98332.77
2018-08-30T05:54:49.669Z,98376.91
2018-08-30T05:56:26.804Z,98338.98
2018-08-30T05:58:04.116Z,98365.92
2018-08-30T05:59:39.407Z,98376.80
2018-08-30T06:01:15.275Z,98427.50
2018-08-30T06:02:50.488Z,98410.71
2018-08-30T06:04:27.675Z,98405.84
2018-08-30T06:06:02.843Z,98389.14
2018-08-30T06:07:38.054Z,98398.94
2018-08-30T06:09:14.931Z,98391.01
2018-08-30T06:10:51.747Z,98413.92
2018-08-30T06:14:08.596Z,98323.20
2018-08-30T06:15:44.967Z,98303.03
2018-08-30T06:17:23.784Z,98282.73
2018-08-30T06:18:59.521Z,98220.24
2018-08-30T06:20:34.770Z,98134.09
2018-08-30T06:22:10.487Z,98129.32
2018-08-30T06:23:48.920Z,98119.17
2018-08-30T06:25:24.801Z,98137.16
2018-08-30T06:27:03.697Z,98162.70
2018-08-30T06:28:40.163Z,98192.13
2018-08-30T06:30:21.214Z,98223.79
2018-08-30T06:33:32.688Z,98369.81
2018-08-30T06:35:15.698Z,98390.14
2018-08-30T06:36:51.356Z,98420.66
2018-08-30T06:38:28.535Z,98494.59
2018-08-30T06:40:06.532Z,98539.52
2018-08-30T06:41:42.253Z,98543.94
2018-08-30T06:43:18.068Z,98546.97
2018-08-30T06:44:54.256Z,98533.76
2018-08-30T06:46:35.296Z,98569.05
2018-08-30T06:48:11.511Z,98617.55
2018-08-30T06:49:53.300Z,98590.72
2018-08-30T06:51:28.487Z,98510.00
2018-08-30T06:53:07.077Z,98528.97
2018-08-30T06:54:43.204Z,98616.80
2018-08-30T06:56:19.021Z,98625.15
2018-08-30T06:57:57.265Z,98571.22
2018-08-30T06:59:32.993Z,98610.06
2018-08-30T07:01:10.476Z,98594.75
2018-08-30T07:02:45.796Z,98635.67
2018-08-30T07:04:22.976Z,98656.00
2018-08-30T07:05:59.690Z,98679.78
2018-08-30T07:07:36.516Z,98680.27
2018-08-30T07:09:13.818Z,98649.89
2018-08-30T07:10:49.240Z,98630.53
2018-08-30T07:12:24.410Z,98671.08
2018-08-30T07:14:02.463Z,98665.80
2018-08-30T07:15:39.464Z,98667.05
2018-08-30T07:17:14.889Z,98640.68
2018-08-30T07:18:50.243Z,98626.49
2018-08-30T07:20:25.887Z,98606.28
2018-08-30T07:22:01.146Z,98566.09
2018-08-30T07:23:40.533Z,98514.53
2018-08-30T07:25:20.809Z,98516.84
2018-08-30T07:27:06.511Z,98507.05
2018-08-30T07:28:48.765Z,98472.78
2018-08-30T07:30:26.801Z,98471.92
2018-08-30T07:32:10.851Z,98516.95
2018-08-30T07:33:46.776Z,98522.02
2018-08-30T07:35:24.251Z,98536.19
2018-08-30T07:37:02.679Z,98474.98
2018-08-30T07:38:39.323Z,98461.27
2018-08-30T07:42:12.310Z,98508.05
2018-08-30T07:43:57.309Z,98582.52
2018-08-30T07:45:33.834Z,98657.00
2018-08-30T07:47:08.972Z,98637.98
2018-08-30T07:48:44.269Z,98630.16
2018-08-30T07:50:21.159Z,98664.94
2018-08-30T07:51:57.652Z,98687.52
2018-08-30T07:53:34.982Z,98680.41
2018-08-30T07:55:10.285Z,98652.70
2018-08-30T07:56:46.013Z,98632.85
2018-08-30T07:58:21.338Z,98619.98
2018-08-30T07:59:56.564Z,98638.96
2018-08-30T08:04:52.871Z,98738.27
2018-08-30T08:06:29.121Z,98725.87
2018-08-30T08:08:04.469Z,98723.06
2018-08-30T08:09:41.133Z,98724.52
2018-08-30T08:11:18.015Z,98751.86
2018-08-30T08:12:54.839Z,98806.22
2018-08-30T08:14:30.117Z,98881.67
2018-08-30T08:16:05.620Z,98964.62
2018-08-30T08:17:40.909Z,98987.57
2018-08-30T08:19:18.235Z,99042.97
2018-08-30T08:20:54.743Z,99112.25
2018-08-30T08:22:32.786Z,99150.24
2018-08-30T08:24:10.404Z,99193.75
2018-08-30T08:25:50.370Z,99173.71
2018-08-30T08:27:29.582Z,99185.65
2018-08-30T08:29:14.820Z,99199.02
2018-08-30T08:30:51.747Z,99301.67
2018-08-30T08:32:27.168Z,99403.42
2018-08-30T08:34:04.392Z,99477.05
2018-08-30T08:35:44.413Z,99398.64
2018-08-30T08:37:20.147Z,99409.70
2018-08-30T08:38:59.987Z,99455.34
2018-08-30T08:40:38.909Z,99500.58
2018-08-30T08:42:14.626Z,99502.31
2018-08-30T08:44:00.084Z,99378.33
2018-08-30T08:45:36.252Z,99267.52
2018-08-30T08:47:12.747Z,99180.84
2018-08-30T08:48:48.348Z,99213.27
2018-08-30T08:50:23.976Z,99308.70
2018-08-30T08:52:07.071Z,99224.70
2018-08-30T08:53:48.010Z,99232.20
2018-08-30T08:55:30.098Z,99264.06
2018-08-30T08:57:05.442Z,99266.66
2018-08-30T08:58:40.686Z,99300.84
2018-08-30T09:00:19.785Z,99362.81
2018-08-30T09:01:55.355Z,99352.97
2018-08-30T09:03:31.123Z,99366.38
2018-08-30T09:05:07.145Z,99349.89
2018-08-30T09:06:43.920Z,99344.14
2018-08-30T09:08:20.978Z,99375.63
2018-08-30T09:09:56.446Z,99399.51
2018-08-30T09:11:32.047Z,99366.00
2018-08-30T09:13:15.607Z,99264.45
2018-08-30T09:14:53.295Z,99181.33
2018-08-30T09:16:32.587Z,99206.52
2018-08-30T09:18:10.616Z,99265.31
2018-08-30T09:19:47.753Z,99322.84
2018-08-30T09:21:25.157Z,99341.78
2018-08-30T09:23:05.205Z,99410.56
2018-08-30T09:24:41.445Z,99445.53
2018-08-30T09:26:21.773Z,99420.65
2018-08-30T09:27:59.748Z,99442.06
2018-08-30T09:29:37.133Z,99487.55
2018-08-30T09:31:17.392Z,99542.09
2018-08-30T09:33:02.348Z,99503.15
2018-08-30T09:34:49.254Z,99501.45
2018-08-30T09:36:32.166Z,99540.73
2018-08-30T09:38:08.700Z,99570.91
2018-08-30T09:39:45.444Z,99595.69
2018-08-30T09:41:23.245Z,99574.35
2018-08-30T09:43:04.893Z,99663.55
2018-08-30T09:44:53.765Z,99745.16
2018-08-30T09:46:35.503Z,99830.38
2018-08-30T09:48:16.894Z,99790.41
2018-08-30T09:49:59.144Z,99693.16
2018-08-30T09:51:44.184Z,99654.18
2018-08-30T09:53:19.804Z,99649.39
2018-08-30T09:54:55.934Z,99623.12
2018-08-30T09:56:31.942Z,99511.92
2018-08-30T09:58:09.185Z,99468.41
2018-08-30T09:59:44.819Z,99523.85
2018-08-30T10:01:30.711Z,99580.91
2018-08-30T10:03:10.234Z,99608.97
2018-08-30T10:06:18.282Z,99603.17
2018-08-30T10:07:56.327Z,99646.55
2018-08-30T10:09:32.953Z,99580.91
2018-08-30T10:11:09.895Z,99599.02
2018-08-30T10:12:50.234Z,99622.16
2018-08-30T10:14:33.787Z,99706.35
2018-08-30T10:16:10.389Z,99818.33
2018-08-30T10:17:47.666Z,99760.09
2018-08-30T10:19:30.247Z,99762.80
2018-08-30T10:21:08.886Z,99790.17
2018-08-30T10:22:52.133Z,99743.95
2018-08-30T10:24:28.639Z,99723.51
2018-08-30T10:26:07.924Z,99757.77
2018-08-30T10:27:44.339Z,99747.15
2018-08-30T10:29:20.630Z,99743.57
2018-08-30T10:30:57.062Z,99621.58
2018-08-30T10:32:32.864Z,99582.89
2018-08-30T10:34:10.578Z,99524.90
2018-08-30T10:37:22.491Z,99463.70
2018-08-30T10:38:59.358Z,99427.34
2018-08-30T10:40:36.163Z,99381.59
2018-08-30T10:42:17.452Z,99359.94
2018-08-30T10:43:54.278Z,99377.16
2018-08-30T10:45:44.217Z,99433.52
2018-08-30T10:49:21.197Z,99377.16
2018-08-30T10:50:58.982Z,99347.50
2018-08-30T10:52:36.869Z,99352.80
2018-08-30T10:54:14.467Z,99378.89
2018-08-30T10:55:51.237Z,99355.75
2018-08-30T10:57:26.656Z,99347.78
2018-08-30T10:59:04.737Z,99310.61
2018-08-30T11:00:40.898Z,99294.47
2018-08-30T11:02:17.173Z,99304.72
2018-08-30T11:04:00.302Z,99353.56
2018-08-30T11:05:47.651Z,99390.23
2018-08-30T11:07:28.683Z,99302.13
2018-08-30T11:09:07.627Z,99270.78
2018-08-30T11:10:43.961Z,99261.33
2018-08-30T11:12:20.747Z,99358.73
2018-08-30T11:13:55.988Z,99374.22
2018-08-30T11:15:31.730Z,99365.77
2018-08-30T11:17:11.287Z,99359.98
2018-08-30T11:18:47.255Z,99317.40
2018-08-30T11:20:23.942Z,99357.27
2018-08-30T11:22:16.960Z,99375.47
2018-08-30T11:23:58.364Z,99360.70
2018-08-30T11:25:34.315Z,99410.43
2018-08-30T11:27:10.683Z,99514.99
2018-08-30T11:28:47.932Z,99581.87
2018-08-30T11:30:23.383Z,99583.59
2018-08-30T11:32:00.601Z,99626.59
2018-08-30T11:33:43.021Z,99656.78
2018-08-30T11:35:20.107Z,99644.22
2018-08-30T11:36:59.916Z,99705.58
2018-08-30T11:40:21.143Z,99616.25
2018-08-30T11:41:58.193Z,99590.61
2018-08-30T11:43:51.513Z,99498.77
2018-08-30T11:45:39.707Z,99478.94
2018-08-30T11:47:17.661Z,99388.42
2018-08-30T11:48:55.887Z,99424.75
2018-08-30T11:50:32.598Z,99469.09
2018-08-30T11:52:11.583Z,99564.28
2018-08-30T11:53:47.333Z,99697.75
2018-08-30T11:55:24.646Z,99726.95
2018-08-30T11:57:03.495Z,99706.98
2018-08-30T11:58:44.883Z,99627.50
2018-08-30T12:00:23.698Z,99630.20
2018-08-30T12:01:59.767Z,99548.64
2018-08-30T12:03:35.587Z,99494.95
2018-08-30T12:05:12.667Z,99346.12
2018-08-30T12:06:49.438Z,99323.36
2018-08-30T12:08:24.755Z,99382.78
2018-08-30T12:10:00.100Z,99405.34
2018-08-30T12:11:38.786Z,99472.80
2018-08-30T12:13:14.556Z,99528.45
2018-08-30T12:14:51.798Z,99547.44
2018-08-30T12:16:27.738Z,99530.58
2018-08-30T12:18:04.531Z,99550.14
2018-08-30T12:19:39.795Z,99541.67
2018-08-30T12:21:15.987Z,99518.64
2018-08-30T12:22:51.261Z,99454.84
2018-08-30T12:24:30.180Z,99427.77
2018-08-30T12:26:05.556Z,99438.72
2018-08-30T12:27:47.724Z,99377.58
2018-08-30T12:29:28.598Z,99390.95
2018-08-30T12:31:05.266Z,99391.23
2018-08-30T12:32:40.606Z,99474.19
2018-08-30T12:34:17.844Z,99516.56
2018-08-30T12:35:55.866Z,99438.62
2018-08-30T12:37:32.433Z,99470.23
2018-08-30T12:39:12.141Z,99497.98
2018-08-30T12:40:50.037Z,99553.75
2018-08-30T12:42:25.734Z,99567.45
2018-08-30T12:44:02.747Z,99571.02
2018-08-30T12:45:39.222Z,99627.20
2018-08-30T12:47:17.337Z,99630.78
2018-08-30T12:48:54.918Z,99569.92
2018-08-30T12:50:31.577Z,99507.09
2018-08-30T12:52:08.304Z,99466.70
2018-08-30T12:53:45.758Z,99504.39
2018-08-30T12:55:25.237Z,99528.19
2018-08-30T12:57:03.180Z,99545.53
2018-08-30T12:58:38.589Z,99520.28
2018-08-30T13:00:16.717Z,99506.86
2018-08-30T13:01:52.170Z,99498.98
2018-08-30T13:03:27.972Z,99457.75
2018-08-30T13:05:04.645Z,99444.82
2018-08-30T13:06:45.812Z,99375.28
2018-08-30T13:08:21.003Z,99332.21
2018-08-30T13:09:56.776Z,99377.98
2018-08-30T13:11:33.578Z,99361.11
2018-08-30T13:13:09.574Z,99409.63
2018-08-30T13:14:47.542Z,99430.92
2018-08-30T13:16:23.096Z,99456.54
2018-08-30T13:17:58.413Z,99458.76
2018-08-30T13:19:35.730Z,99431.68
2018-08-30T13:21:16.766Z,99484.87
2018-08-30T13:22:57.440Z,99470.09
2018-08-30T13:24:33.093Z,99484.38
2018-08-30T13:26:10.281Z,99475.89
2018-08-30T13:27:45.670Z,99481.54
2018-08-30T13:29:32.040Z,99503.84
2018-08-30T13:31:08.410Z,99560.48
2018-08-30T13:32:50.798Z,99575.89
2018-08-30T13:34:40.466Z,99540.54
2018-08-30T13:36:23.621Z,99510.25
2018-08-30T13:38:06.472Z,99461.02
2018-08-30T13:39:48.188Z,99412.75
2018-08-30T13:43:47.266Z,99393.65
2018-08-30T13:45:42.008Z,99411.26
2018-08-30T13:47:21.015Z,99494.99
2018-08-30T13:49:04.258Z,99566.70
2018-08-30T13:50:43.507Z,99619.09
2018-08-30T13:52:26.611Z,99686.02
2018-08-30T13:54:17.287Z,99753.88
2018-08-30T13:56:02.815Z,99785.70
2018-08-30T13:57:49.703Z,99802.58
2018-08-30T13:59:38.173Z,99748.80
2018-08-30T14:01:20.185Z,99811.86
2018-08-30T14:03:01.813Z,99884.66
2018-08-30T14:04:38.351Z,99931.73
2018-08-30T14:06:19.987Z,99885.91
2018-08-30T14:07:56.281Z,100000.13
2018-08-30T14:09:33.217Z,100082.30
2018-08-30T14:11:10.900Z,100142.84
2018-08-30T14:12:50.796Z,100168.19
2018-08-30T14:14:27.640Z,100120.96
2018-08-30T14:16:04.997Z,100143.23
2018-08-30T14:17:40.989Z,100186.63
2018-08-30T14:19:18.061Z,100154.63
2018-08-30T14:20:54.435Z,100199.99
2018-08-30T14:22:30.811Z,100206.67
2018-08-30T14:24:08.540Z,100118.15
2018-08-30T14:25:49.342Z,100031.80
2018-08-30T14:27:28.281Z,100047.28
2018-08-30T14:29:06.229Z,100044.18
2018-08-30T14:30:42.101Z,100006.85
2018-08-30T14:32:20.432Z,99998.72
2018-08-30T14:33:58.686Z,99875.22
2018-08-30T14:35:35.575Z,99941.41
2018-08-30T14:37:12.620Z,100015.91
2018-08-30T14:38:48.005Z,100019.48
2018-08-30T14:40:23.788Z,100011.45
2018-08-30T14:42:14.751Z,99986.13
2018-08-30T14:44:06.294Z,99935.50
2018-08-30T14:45:50.270Z,99924.80
2018-08-30T14:47:29.891Z,99856.25
2018-08-30T14:49:10.749Z,99917.63
2018-08-30T14:52:23.820Z,99816.63
2018-08-30T14:54:00.904Z,99688.49
2018-08-30T14:55:37.353Z,99655.09
2018-08-30T14:57:14.875Z,99717.59
2018-08-30T14:58:50.814Z,99742.87
2018-08-30T15:00:32.720Z,99762.85
2018-08-30T15:02:08.927Z,99824.45
2018-08-30T15:03:45.860Z,99928.03
2018-08-30T15:05:22.564Z,100015.09
2018-08-30T15:07:01.604Z,100060.31
2018-08-30T15:08:38.504Z,100067.87
2018-08-30T15:10:17.887Z,100044.28
2018-08-30T15:11:55.868Z,99992.75
2018-08-30T15:13:33.251Z,100035.75
2018-08-30T15:15:09.573Z,100095.68
2018-08-30T15:16:47.992Z,100026.37
2018-08-30T15:18:24.085Z,99991.69
2018-08-30T15:20:02.757Z,99917.72
2018-08-30T15:21:38.746Z,99892.52
2018-08-30T15:23:14.822Z,99818.80
2018-08-30T15:24:55.448Z,99806.35
2018-08-30T15:26:33.718Z,99784.98
2018-08-30T15:28:08.935Z,99765.01
2018-08-30T15:29:45.556Z,99678.42
2018-08-30T15:31:20.798Z,99748.51
2018-08-30T15:32:56.757Z,99795.13
2018-08-30T15:34:38.921Z,99854.03
2018-08-30T15:36:16.890Z,99899.33
2018-08-30T15:37:53.846Z,99942.31
2018-08-30T15:39:30.654Z,99980.98
2018-08-30T15:41:06.902Z,99948.98
2018-08-30T15:42:43.895Z,99951.49
2018-08-30T15:44:19.132Z,99937.76
2018-08-30T15:45:55.623Z,99896.80
2018-08-30T15:47:31.213Z,99890.61
2018-08-30T15:49:07.462Z,99815.08
2018-08-30T15:50:43.261Z,99763.20
2018-08-30T15:52:20.274Z,99721.91
2018-08-30T15:53:55.396Z,99733.36
2018-08-30T15:55:32.022Z,99770.26
2018-08-30T15:57:08.753Z,99852.83
2018-08-30T15:58:47.855Z,99877.54
2018-08-30T16:00:25.706Z,99848.66
2018-08-30T16:02:00.912Z,99759.80
2018-08-30T16:03:37.176Z,99672.83
2018-08-30T16:05:14.724Z,99586.28
2018-08-30T16:06:50.693Z,99624.98
2018-08-30T16:08:31.659Z,99631.41
2018-08-30T16:10:08.230Z,99660.26
2018-08-30T16:11:46.585Z,99686.89
2018-08-30T16:13:22.807Z,99698.39
2018-08-30T16:14:59.806Z,99702.31
2018-08-30T16:16:36.043Z,99703.18
2018-08-30T16:18:12.767Z,99722.18
2018-08-30T16:19:50.496Z,99726.63
2018-08-30T16:23:37.587Z,99658.80
2018-08-30T16:25:12.773Z,99682.23
2018-08-30T16:26:50.383Z,99682.23
2018-08-30T16:28:28.073Z,99712.31
2018-08-30T16:30:05.776Z,99740.20
2018-08-30T16:31:47.356Z,99748.23
2018-08-30T16:33:23.887Z,99798.75
2018-08-30T16:34:59.319Z,99813.31
2018-08-30T16:36:34.959Z,99815.53
2018-08-30T16:38:10.316Z,99823.91
2018-08-30T16:39:45.705Z,99859.47
2018-08-30T16:41:21.707Z,99905.25
2018-08-30T16:42:59.124Z,99887.88
2018-08-30T16:44:35.821Z,99843.80
2018-08-30T16:46:18.334Z,99818.00
2018-08-30T16:48:06.741Z,99801.98
2018-08-30T16:49:55.225Z,99790.48
2018-08-30T16:51:31.752Z,99731.48
2018-08-30T16:53:08.230Z,99691.02
2018-08-30T16:54:45.061Z,99712.73
2018-08-30T16:56:22.602Z,99731.00
2018-08-30T16:57:59.723Z,99751.14
2018-08-30T16:59:39.639Z,99748.19
2018-08-30T17:01:17.268Z,99687.34
2018-08-30T17:02:54.568Z,99679.94
2018-08-30T17:04:33.908Z,99681.05
2018-08-30T17:06:13.488Z,99640.25
2018-08-30T17:07:49.716Z,99641.60
2018-08-30T17:09:26.440Z,99669.97
2018-08-30T17:11:03.985Z,99659.34
2018-08-30T17:12:42.624Z,99663.30
2018-08-30T17:14:18.437Z,99654.30
2018-08-30T17:15:55.509Z,99649.48
2018-08-30T17:17:36.011Z,99657.50
2018-08-30T17:19:23.505Z,99681.81
2018-08-30T17:21:02.623Z,99633.85
2018-08-30T17:22:40.297Z,99528.23
2018-08-30T17:24:18.876Z,99506.05
2018-08-30T17:25:59.610Z,99523.78
2018-08-30T17:27:35.587Z,99531.17
2018-08-30T17:29:12.514Z,99521.56
2018-08-30T17:30:53.699Z,99529.09
2018-08-30T17:32:30.932Z,99529.33
2018-08-30T17:34:08.467Z,99540.92
2018-08-30T17:35:48.608Z,99557.30
2018-08-30T17:37:31.718Z,99607.36
2018-08-30T17:39:13.629Z,99612.67
2018-08-30T17:40:51.067Z,99587.02
2018-08-30T17:42:36.561Z,99547.94
2018-08-30T17:44:19.530Z,99480.92
2018-08-30T17:45:57.828Z,99493.00
2018-08-30T17:47:33.028Z,99446.30
2018-08-30T17:49:09.129Z,99401.98
2018-08-30T17:50:49.321Z,99346.16
2018-08-30T17:52:24.682Z,99344.58
2018-08-30T17:54:03.332Z,99371.44
2018-08-30T17:55:41.329Z,99400.14
2018-08-30T17:57:25.928Z,99439.16
2018-08-30T17:59:05.061Z,99462.56
2018-08-30T18:00:47.423Z,99450.15
2018-08-30T18:02:25.640Z,99454.94
2018-08-30T18:04:07.348Z,99462.08
2018-08-30T18:05:47.646Z,99471.45
2018-08-30T18:07:32.369Z,99443.00
2018-08-30T18:09:14.920Z,99454.94
2018-08-30T18:10:51.577Z,99473.04
2018-08-30T18:12:29.802Z,99397.18
2018-08-30T18:14:05.589Z,99303.34
2018-08-30T18:15:41.137Z,99255.10
2018-08-30T18:17:18.558Z,99217.09
2018-08-30T18:18:54.544Z,99187.07
2018-08-30T18:20:30.674Z,99132.22
2018-08-30T18:22:09.712Z,99107.39
2018-08-30T18:23:45.461Z,99125.60
2018-08-30T18:25:24.245Z,99109.60
2018-08-30T18:26:59.802Z,99120.69
2018-08-30T18:28:36.330Z,99157.31
2018-08-30T18:30:16.261Z,99119.67
2018-08-30T18:33:33.056Z,99065.36
2018-08-30T18:35:11.301Z,99065.73
2018-08-30T18:36:49.772Z,99029.95
2018-08-30T18:38:30.592Z,99017.38
2018-08-30T18:40:08.740Z,99034.76
2018-08-30T18:41:45.256Z,99032.05
2018-08-30T18:43:22.439Z,98990.84
2018-08-30T18:45:06.076Z,98986.94
2018-08-30T18:47:03.345Z,98986.56
2018-08-30T18:49:04.407Z,98905.61
2018-08-30T18:50:50.429Z,98936.08
2018-08-30T18:52:27.680Z,98947.12
2018-08-30T18:54:03.291Z,98863.60
2018-08-30T18:55:38.689Z,98866.30
2018-08-30T18:57:15.552Z,98847.77
2018-08-30T18:58:52.379Z,98814.13
2018-08-30T19:00:29.281Z,98834.38
2018-08-30T19:02:08.615Z,98845.81
2018-08-30T19:03:48.107Z,98840.05
2018-08-30T19:05:25.585Z,98843.23
2018-08-30T19:07:03.860Z,98843.61
2018-08-30T19:08:39.076Z,98859.06
2018-08-30T19:10:14.455Z,98836.59
2018-08-30T19:11:49.769Z,98819.79
2018-08-30T19:13:25.928Z,98804.83
2018-08-30T19:15:07.228Z,98797.33
2018-08-30T19:17:48.577Z,98787.39
2018-08-30T19:19:29.311Z,98745.18
2018-08-30T19:21:08.416Z,98700.66
2018-08-30T19:22:44.336Z,98671.91
2018-08-30T19:24:24.805Z,98664.80
2018-08-30T19:26:04.391Z,98643.70
2018-08-30T19:27:41.790Z,98645.42
2018-08-30T19:29:17.930Z,98637.45